Time;durP1;ratioP1;P1;durP2;ratioP2;P2;SDS_P1;SDS_P2;PMS_P1;PMS_P2;Temp;Humidity;BMP_temperature;BMP_pressure;BME280_temperature;BME280_humidity;BME280_pressure;Samples;Min_cycle;Max_cycle;Signal;HPM_P1;HPM_P2
2021/05/18 00:00:48;;;;;;;0.17;0.10;;;9.20;99.90;;;;;;4958235;29;20035;-85
2021/05/18 00:03:16;;;;;;;0.28;0.13;;;9.20;99.90;;;;;;4956622;29;20027;-85
2021/05/18 00:05:48;;;;;;;0.20;0.10;;;9.20;99.90;;;;;;4957739;29;20032;-85
2021/05/18 00:08:15;;;;;;;1.00;0.17;;;9.20;99.90;;;;;;4957621;28;20070;-85
2021/05/18 00:13:31;;;;;;;0.13;0.10;;;9.20;99.90;;;;;;4957144;29;20046;-86
2021/05/18 00:15:58;;;;;;;0.38;0.20;;;9.20;99.90;;;;;;4956160;29;20039;-85
2021/05/18 00:18:25;;;;;;;1.75;0.20;;;9.20;99.90;;;;;;4955657;28;20118;-85
2021/05/18 00:20:50;;;;;;;0.63;0.47;;;9.20;99.90;;;;;;4955464;28;20035;-85
2021/05/18 00:23:16;;;;;;;0.55;0.10;;;9.20;99.90;;;;;;4970244;28;20035;-85
2021/05/18 00:25:43;;;;;;;1.15;0.20;;;9.20;99.90;;;;;;4979620;28;20025;-85
2021/05/18 00:28:09;;;;;;;0.40;0.20;;;9.20;99.90;;;;;;4978119;28;20027;-85
2021/05/18 00:30:35;;;;;;;0.43;0.15;;;9.20;99.90;;;;;;4978643;28;20027;-85
2021/05/18 00:33:07;;;;;;;0.10;0.10;;;9.20;99.90;;;;;;4967754;28;20034;-85
2021/05/18 00:35:33;;;;;;;;;;;9.20;99.90;;;;;;4957984;29;20023;-85
2021/05/18 00:37:59;;;;;;;0.52;0.17;;;9.10;99.90;;;;;;4955056;28;19970;-85
2021/05/18 00:40:24;;;;;;;0.40;0.20;;;9.10;99.90;;;;;;4955486;29;20042;-86
2021/05/18 00:42:52;;;;;;;0.93;0.20;;;9.20;99.90;;;;;;4955868;29;20042;-86
2021/05/18 00:45:27;;;;;;;0.40;0.20;;;9.20;99.90;;;;;;4955533;29;20023;-86
2021/05/18 00:47:53;;;;;;;0.50;0.20;;;9.20;99.90;;;;;;4955990;29;20046;-85
2021/05/18 00:50:19;;;;;;;0.90;0.20;;;9.10;99.90;;;;;;4956706;29;20027;-86
2021/05/18 00:52:45;;;;;;;1.05;0.10;;;9.20;99.90;;;;;;4955497;28;20085;-86
2021/05/18 00:55:34;;;;;;;0.88;0.20;;;9.20;99.90;;;;;;4955606;29;20074;-86
2021/05/18 01:00:44;;;;;;;0.70;0.10;;;9.20;99.90;;;;;;4949808;29;20066;-85
2021/05/18 01:03:10;;;;;;;0.73;0.13;;;9.10;99.90;;;;;;4955140;29;20130;-85
2021/05/18 01:08:21;;;;;;;0.10;0.10;;;9.10;99.90;;;;;;4957361;28;20514;-86
2021/05/18 01:10:47;;;;;;;1.35;0.20;;;9.10;99.90;;;;;;4955135;29;20032;-85
2021/05/18 01:13:13;;;;;;;0.75;0.20;;;9.10;99.90;;;;;;4955288;29;20027;-86
2021/05/18 01:15:39;;;;;;;0.40;0.20;;;9.10;99.90;;;;;;4955050;29;20350;-85
2021/05/18 01:18:06;;;;;;;0.60;0.20;;;9.10;99.90;;;;;;4954809;28;20051;-86
2021/05/18 01:20:37;;;;;;;0.32;0.10;;;9.10;99.90;;;;;;4954843;29;20098;-86
2021/05/18 01:23:03;;;;;;;0.40;0.20;;;9.10;99.90;;;;;;4975255;28;20058;-85
2021/05/18 01:25:29;;;;;;;0.57;0.17;;;9.10;99.90;;;;;;4953287;28;20027;-86
2021/05/18 01:27:54;;;;;;;0.80;0.20;;;9.20;99.90;;;;;;4947914;28;20023;-86
2021/05/18 01:30:20;;;;;;;0.40;0.20;;;9.20;99.90;;;;;;4966268;28;20031;-85
2021/05/18 01:32:46;;;;;;;0.20;0.10;;;9.20;99.90;;;;;;4969332;28;20473;-86
2021/05/18 01:35:13;;;;;;;2.00;0.20;;;9.20;99.90;;;;;;4954970;29;20031;-86
2021/05/18 01:37:40;;;;;;;0.63;0.10;;;9.30;99.90;;;;;;4954836;28;20571;-86
2021/05/18 01:42:54;;;;;;;0.57;0.28;;;9.30;99.90;;;;;;4957512;28;20027;-85
2021/05/18 01:45:25;;;;;;;0.10;0.10;;;9.40;99.90;;;;;;4958727;29;20024;-86
2021/05/18 01:47:53;;;;;;;0.30;0.10;;;9.20;99.90;;;;;;4958191;29;20035;-86
2021/05/18 01:50:22;;;;;;;1.50;0.17;;;9.30;99.90;;;;;;4951974;28;20051;-85
2021/05/18 01:52:48;;;;;;;0.40;0.20;;;9.20;99.90;;;;;;4939232;29;20082;-86
2021/05/18 01:55:20;;;;;;;0.55;0.10;;;9.20;99.90;;;;;;4940369;29;20034;-86
2021/05/18 01:57:46;;;;;;;;;;;9.20;99.90;;;;;;4939272;29;20032;-86
2021/05/18 02:00:15;;;;;;;0.30;0.15;;;9.20;99.90;;;;;;4938788;29;19963;-86
2021/05/18 02:02:42;;;;;;;0.75;0.20;;;9.20;99.90;;;;;;4940248;29;20051;-85
2021/05/18 02:05:11;;;;;;;0.10;0.00;;;9.10;99.90;;;;;;4939170;29;20024;-86
2021/05/18 02:07:40;;;;;;;0.15;0.10;;;9.20;99.90;;;;;;4946340;29;20096;-85
2021/05/18 02:10:12;;;;;;;1.60;0.20;;;9.10;99.90;;;;;;4948436;29;20114;-86
2021/05/18 02:12:38;;;;;;;0.30;0.10;;;9.10;99.90;;;;;;4972771;28;20118;-86
2021/05/18 02:17:53;;;;;;;0.20;0.20;;;9.10;99.90;;;;;;4970425;28;20039;-85
2021/05/18 02:20:34;;;;;;;0.57;0.20;;;9.00;99.90;;;;;;4966599;28;20031;-86
2021/05/18 02:25:43;;;;;;;1.00;0.20;;;8.90;99.90;;;;;;4959131;29;20062;-85
2021/05/18 02:28:09;;;;;;;1.00;0.20;;;9.00;99.90;;;;;;4958330;28;20028;-85
2021/05/18 02:30:37;;;;;;;0.10;0.10;;;8.80;99.90;;;;;;4974252;28;20480;-86
2021/05/18 02:33:04;;;;;;;1.23;0.30;;;8.90;99.90;;;;;;4958598;29;20046;-85
2021/05/18 02:35:30;;;;;;;0.47;0.17;;;8.90;99.90;;;;;;4961687;28;20055;-86
2021/05/18 02:37:56;;;;;;;0.85;0.20;;;8.80;99.90;;;;;;4954376;28;20039;-86
2021/05/18 02:40:29;;;;;;;1.23;0.13;;;8.80;99.90;;;;;;4954724;29;20087;-85
2021/05/18 02:42:55;;;;;;;1.55;0.30;;;8.80;99.90;;;;;;4958220;29;20034;-85
2021/05/18 02:50:43;;;;;;;0.40;0.20;;;8.90;99.90;;;;;;4958960;29;20034;-85
2021/05/18 02:53:09;;;;;;;0.60;0.10;;;8.80;99.90;;;;;;4969114;28;20054;-85
2021/05/18 02:58:01;;;;;;;1.58;0.57;;;8.80;99.90;;;;;;4977360;28;20045;-86
2021/05/18 03:00:27;;;;;;;0.77;0.28;;;8.80;99.90;;;;;;4962371;28;20456;-85
2021/05/18 03:02:52;;;;;;;1.08;0.30;;;8.90;99.90;;;;;;4956852;29;20027;-85
2021/05/18 03:05:20;;;;;;;0.60;0.20;;;8.90;99.90;;;;;;4957797;29;20485;-85
2021/05/18 03:07:45;;;;;;;0.50;0.30;;;8.90;99.90;;;;;;4956590;28;20031;-85
2021/05/18 03:10:12;;;;;;;2.70;0.32;;;8.90;99.90;;;;;;4956726;29;20034;-85
2021/05/18 03:12:38;;;;;;;0.77;0.25;;;8.90;99.90;;;;;;4957040;29;20035;-86
2021/05/18 03:15:04;;;;;;;0.22;0.20;;;8.80;99.90;;;;;;4956923;29;20503;-85
2021/05/18 03:17:31;;;;;;;0.90;0.30;;;8.80;99.90;;;;;;4956693;28;20035;-85
2021/05/18 03:19:57;;;;;;;0.55;0.20;;;8.80;99.90;;;;;;4939389;29;20055;-85
2021/05/18 03:22:22;;;;;;;0.40;0.30;;;9.00;99.90;;;;;;4956814;29;20090;-86
2021/05/18 03:24:48;;;;;;;0.85;0.30;;;8.90;99.90;;;;;;4958184;29;20027;-85
2021/05/18 03:27:14;;;;;;;0.68;0.30;;;8.90;99.90;;;;;;4957685;28;20106;-85
2021/05/18 03:29:40;;;;;;;0.65;0.30;;;8.90;99.90;;;;;;4956414;29;20027;-85
2021/05/18 03:34:51;;;;;;;0.98;0.20;;;8.90;99.90;;;;;;4957991;29;20082;-85
2021/05/18 03:37:26;;;;;;;0.57;0.20;;;8.90;99.90;;;;;;4956477;28;20039;-85
2021/05/18 03:39:57;;;;;;;0.45;0.22;;;8.90;99.90;;;;;;4958111;28;20027;-85
2021/05/18 03:42:26;;;;;;;0.15;0.10;;;9.10;99.90;;;;;;4960114;28;20023;-85
2021/05/18 03:53:56;;;;;;;0.30;0.20;;;9.00;99.90;;;;;;4965985;28;20065;-85
2021/05/18 04:04:06;;;;;;;0.95;0.20;;;8.90;99.90;;;;;;4957495;28;20512;-85
2021/05/18 04:17:14;;;;;;;1.80;0.30;;;9.00;99.90;;;;;;4976214;28;20093;-85
2021/05/18 04:19:45;;;;;;;0.25;0.10;;;9.00;99.90;;;;;;4974942;28;20031;-85
2021/05/18 04:22:29;;;;;;;1.08;0.25;;;9.00;99.90;;;;;;4967013;28;20030;-86
2021/05/18 04:38:53;;;;;;;1.08;0.20;;;8.90;99.90;;;;;;4956375;29;20086;-85
2021/05/18 04:52:08;;;;;;;0.40;0.20;;;8.90;99.90;;;;;;4956639;28;20093;-85
2021/05/18 05:00:02;;;;;;;0.40;0.10;;;8.90;99.90;;;;;;4937215;29;20050;-85
2021/05/18 05:15:41;;;;;;;0.75;0.28;;;8.90;99.90;;;;;;4934553;29;20027;-85
2021/05/18 05:18:06;;;;;;;0.32;0.13;;;8.90;99.90;;;;;;4941167;29;20078;-85
2021/05/18 05:20:32;;;;;;;0.30;0.10;;;8.90;99.90;;;;;;4945537;29;20039;-86
2021/05/18 05:22:58;;;;;;;0.20;0.10;;;8.90;99.90;;;;;;4950126;28;20457;-86
2021/05/18 05:25:24;;;;;;;1.58;0.30;;;8.90;99.90;;;;;;4942505;29;20140;-85
2021/05/18 05:27:51;;;;;;;0.30;0.10;;;8.90;99.90;;;;;;4945282;28;20020;-85
2021/05/18 05:30:16;;;;;;;1.45;0.20;;;8.90;99.90;;;;;;4934480;29;20032;-85
2021/05/18 05:32:42;;;;;;;2.72;0.20;;;9.00;99.90;;;;;;4968916;28;20480;-85
2021/05/18 05:35:09;;;;;;;0.63;0.10;;;9.00;99.90;;;;;;4952055;29;20114;-86
2021/05/18 05:37:34;;;;;;;0.52;0.20;;;9.00;99.90;;;;;;4951441;28;20524;-86
2021/05/18 05:40:00;;;;;;;0.70;0.20;;;9.00;99.90;;;;;;4952262;29;20127;-86
2021/05/18 05:42:26;;;;;;;1.15;0.45;;;9.10;99.90;;;;;;4952200;29;20062;-85
2021/05/18 05:44:52;;;;;;;1.98;0.30;;;9.10;99.90;;;;;;4953537;29;20129;-88
2021/05/18 05:47:21;;;;;;;1.48;0.38;;;9.20;99.90;;;;;;4951797;28;20061;-86
2021/05/18 05:49:47;;;;;;;1.00;0.20;;;9.10;99.90;;;;;;4939638;29;20122;-86
2021/05/18 05:52:20;;;;;;;0.50;0.22;;;9.20;99.90;;;;;;4938976;28;20138;-87
2021/05/18 05:54:46;;;;;;;1.20;0.30;;;9.00;99.90;;;;;;4947083;29;20401;-86
2021/05/18 05:57:11;;;;;;;0.85;0.30;;;9.00;99.90;;;;;;4945682;29;20031;-86
2021/05/18 05:59:38;;;;;;;0.82;0.35;;;9.00;99.90;;;;;;4946582;29;20405;-86
2021/05/18 06:02:05;;;;;;;0.90;0.40;;;9.10;99.90;;;;;;4943992;28;20093;-85
2021/05/18 06:04:31;;;;;;;3.17;0.40;;;9.10;99.90;;;;;;4943112;28;20059;-86
2021/05/18 06:06:57;;;;;;;0.73;0.22;;;9.10;99.90;;;;;;4947615;28;20082;-87
2021/05/18 06:09:25;;;;;;;3.42;0.52;;;9.20;99.90;;;;;;4947643;28;20094;-85
2021/05/18 06:12:13;;;;;;;1.83;0.30;;;9.30;99.90;;;;;;4949048;28;20035;-86
2021/05/18 06:47:52;;;;;;;1.88;0.50;;;9.70;99.90;;;;;;4957536;28;20045;-88
2021/05/18 06:50:34;;;;;;;3.08;0.30;;;9.80;99.90;;;;;;4955294;29;20019;-89
2021/05/18 06:53:02;;;;;;;;;;;9.80;99.90;;;;;;4956480;29;20077;-90
2021/05/18 06:55:33;;;;;;;0.60;0.30;;;9.90;99.90;;;;;;4955619;29;19915;-88
2021/05/18 07:01:39;;;;;;;0.70;0.30;;;10.10;99.90;;;;;;4957427;29;20041;-88
2021/05/18 07:04:37;;;;;;;1.83;0.38;;;10.20;99.90;;;;;;4955960;29;20035;-89
2021/05/18 07:07:13;;;;;;;1.38;0.40;;;10.30;99.90;;;;;;4955878;28;20035;-88
2021/05/18 07:09:58;;;;;;;1.05;0.40;;;10.30;99.90;;;;;;4955790;29;20062;-89
2021/05/18 07:12:25;;;;;;;0.68;0.28;;;10.30;99.90;;;;;;4956434;29;20096;-85
2021/05/18 07:14:58;;;;;;;1.65;0.30;;;10.30;99.90;;;;;;4956160;29;20066;-85
2021/05/18 07:17:36;;;;;;;2.35;0.30;;;10.40;99.90;;;;;;4955521;28;20023;-88
2021/05/18 07:20:09;;;;;;;1.90;0.30;;;10.50;99.90;;;;;;4957021;29;20023;-88
2021/05/18 07:22:35;;;;;;;1.00;0.32;;;10.50;99.90;;;;;;4955862;29;20031;-88
2021/05/18 07:25:01;;;;;;;0.60;0.30;;;10.60;99.90;;;;;;4955211;29;20063;-84
2021/05/18 07:27:28;;;;;;;1.38;0.30;;;10.80;99.90;;;;;;4951002;28;20027;-85
2021/05/18 07:29:55;;;;;;;1.90;0.45;;;10.70;99.90;;;;;;4955022;29;20027;-84
2021/05/18 07:32:21;;;;;;;1.45;0.50;;;10.90;99.90;;;;;;4957643;28;20048;-85
2021/05/18 07:34:55;;;;;;;1.13;0.22;;;11.00;99.90;;;;;;4955351;28;20032;-89
2021/05/18 07:37:22;;;;;;;0.43;0.20;;;11.00;99.90;;;;;;4954829;28;20046;-87
2021/05/18 07:39:49;;;;;;;1.05;0.40;;;11.10;99.90;;;;;;4955177;29;20028;-87
2021/05/18 07:42:15;;;;;;;0.73;0.20;;;11.00;99.90;;;;;;4955843;29;20031;-85
2021/05/18 07:44:42;;;;;;;0.60;0.20;;;11.10;99.90;;;;;;4955689;28;20462;-87
2021/05/18 07:47:08;;;;;;;1.95;0.38;;;11.20;99.90;;;;;;4954752;28;20030;-86
2021/05/18 07:49:38;;;;;;;0.90;0.20;;;11.10;99.90;;;;;;4955519;29;20019;-85
2021/05/18 08:05:45;;;;;;;0.30;0.15;;;11.50;99.90;;;;;;4923497;28;20036;-86
2021/05/18 08:08:11;;;;;;;0.52;0.20;;;11.50;99.90;;;;;;4955599;28;20023;-86
2021/05/18 08:10:58;;;;;;;2.78;0.50;;;11.50;99.90;;;;;;4955930;29;20053;-86
2021/05/18 08:13:30;;;;;;;0.85;0.20;;;11.40;99.90;;;;;;4958399;29;20031;-87
2021/05/18 10:24:43;;;;;;;2.45;0.32;;;11.70;99.90;;;;;;4956779;28;20059;-88
2021/05/18 10:27:09;;;;;;;0.93;0.20;;;11.60;99.90;;;;;;4952871;28;20382;-89
2021/05/18 10:34:36;;;;;;;3.42;0.52;;;12.50;99.90;;;;;;4953194;28;20118;-89
2021/05/18 10:37:32;;;;;;;;;;;12.80;99.90;;;;;;4953675;28;20031;-89
2021/05/18 10:40:16;;;;;;;1.08;0.30;;;13.20;99.90;;;;;;4954730;28;19907;-88
2021/05/18 10:43:20;;;;;;;0.95;0.20;;;13.90;99.90;;;;;;4950247;29;20031;-88
2021/05/18 10:45:55;;;;;;;2.17;0.30;;;14.30;99.90;;;;;;4950508;29;20126;-89
2021/05/18 10:48:36;;;;;;;1.67;0.20;;;14.80;99.90;;;;;;4953096;28;20027;-88
2021/05/18 10:51:21;;;;;;;0.57;0.20;;;15.10;99.90;;;;;;4947515;28;20119;-88
2021/05/18 10:54:18;;;;;;;3.42;0.20;;;15.30;99.90;;;;;;4947832;28;20020;-88
2021/05/18 10:56:59;;;;;;;1.02;0.10;;;15.20;99.90;;;;;;4950451;28;20023;-89
2021/05/18 10:59:34;;;;;;;2.40;0.30;;;15.20;99.90;;;;;;4949506;29;20530;-88
2021/05/18 11:02:21;;;;;;;1.98;0.20;;;15.30;99.90;;;;;;4954506;28;20031;-89
2021/05/18 11:04:55;;;;;;;2.92;0.30;;;15.30;99.90;;;;;;4946900;29;20031;-89
2021/05/18 11:07:28;;;;;;;0.93;0.17;;;15.70;99.90;;;;;;4954178;28;20078;-89
2021/05/18 11:09:53;;;;;;;0.70;0.20;;;15.90;99.90;;;;;;4954006;28;20035;-88
2021/05/18 11:12:22;;;;;;;1.83;0.10;;;15.80;99.90;;;;;;4953687;29;20027;-89
2021/05/18 11:15:15;;;;;;;1.00;0.20;;;15.90;99.90;;;;;;4948008;28;20043;-90
2021/05/18 11:17:46;;;;;;;1.50;0.30;;;16.20;99.90;;;;;;4950886;28;20054;-89
2021/05/18 11:20:22;;;;;;;1.13;0.20;;;16.50;99.90;;;;;;4952769;29;20031;-88
2021/05/18 11:26:05;;;;;;;2.28;0.15;;;16.60;99.90;;;;;;4952389;29;20033;-89
2021/05/18 11:28:40;;;;;;;0.63;0.10;;;16.60;99.90;;;;;;4950259;28;20039;-89
2021/05/18 11:31:09;;;;;;;1.52;0.20;;;16.70;99.90;;;;;;4952539;29;20114;-89
2021/05/18 11:33:45;;;;;;;0.95;0.15;;;16.50;99.90;;;;;;4950662;29;20058;-89
2021/05/18 11:36:15;;;;;;;2.17;0.30;;;15.80;99.90;;;;;;4951048;28;20031;-88
2021/05/18 11:38:54;;;;;;;1.63;0.10;;;15.10;99.90;;;;;;4952065;28;20051;-89
2021/05/18 11:41:22;;;;;;;2.83;0.10;;;15.20;99.90;;;;;;4952653;28;20060;-88
2021/05/18 11:43:52;;;;;;;0.75;0.10;;;15.70;99.90;;;;;;4950044;29;20410;-89
2021/05/18 11:46:18;;;;;;;1.85;0.20;;;15.70;99.90;;;;;;4943578;28;20036;-88
2021/05/18 11:48:56;;;;;;;0.65;0.10;;;15.20;99.90;;;;;;4950979;29;20155;-88
2021/05/18 11:51:23;;;;;;;2.92;0.20;;;14.50;99.20;;;;;;4951249;28;20121;-87
2021/05/18 11:53:53;;;;;;;0.77;0.10;;;13.70;99.90;;;;;;4953268;28;20807;-88
2021/05/18 11:56:31;;;;;;;0.82;0.20;;;13.30;99.90;;;;;;4948101;28;20024;-88
2021/05/18 11:59:03;;;;;;;0.75;0.20;;;12.90;99.90;;;;;;4948258;28;20059;-88
2021/05/18 12:01:31;;;;;;;1.67;0.30;;;12.70;99.90;;;;;;4951072;29;20059;-89
2021/05/18 12:04:07;;;;;;;1.30;0.40;;;12.70;99.90;;;;;;4953920;28;20066;-89
2021/05/18 12:06:35;;;;;;;2.95;0.70;;;12.90;99.90;;;;;;4953541;28;20086;-90
2021/05/18 12:09:03;;;;;;;1.85;0.40;;;13.00;99.90;;;;;;4950954;29;20024;-89
2021/05/18 12:11:28;;;;;;;0.38;0.10;;;13.50;99.90;;;;;;4955653;28;20118;-89
2021/05/18 12:13:54;;;;;;;1.38;0.20;;;13.30;99.90;;;;;;4955792;29;20481;-90
2021/05/18 12:16:22;;;;;;;1.00;0.20;;;13.80;99.90;;;;;;4953444;28;20030;-89
2021/05/18 12:18:53;;;;;;;0.93;0.10;;;14.50;99.90;;;;;;4950115;28;20694;-89
2021/05/18 12:21:26;;;;;;;1.70;0.20;;;15.10;99.90;;;;;;4946168;28;20031;-90
2021/05/18 12:24:12;;;;;;;1.55;0.10;;;14.90;99.90;;;;;;4950951;28;20090;-89
2021/05/18 12:27:08;;;;;;;3.75;0.77;;;15.10;99.90;;;;;;4951163;28;20032;-88
2021/05/18 12:29:42;;;;;;;1.08;0.20;;;15.50;99.90;;;;;;4934968;29;20023;-87
2021/05/18 12:32:28;;;;;;;1.88;0.10;;;15.50;99.90;;;;;;4952017;28;20378;-87
2021/05/18 12:34:57;;;;;;;0.25;0.10;;;15.90;99.90;;;;;;4955042;29;20030;-88
2021/05/18 12:37:35;;;;;;;0.30;0.00;;;16.00;99.90;;;;;;4953139;28;20039;-86
2021/05/18 12:40:28;;;;;;;1.10;0.10;;;16.20;99.90;;;;;;4953219;29;20034;-87
2021/05/18 12:43:06;;;;;;;0.38;0.20;;;16.50;99.90;;;;;;4944673;28;20045;-88
2021/05/18 12:45:31;;;;;;;1.58;0.22;;;16.90;98.70;;;;;;4950236;29;20066;-88
2021/05/18 12:48:00;;;;;;;2.22;0.30;;;17.40;99.90;;;;;;4945183;28;20066;-88
2021/05/18 12:50:43;;;;;;;0.85;0.10;;;17.60;96.40;;;;;;4951477;29;20393;-89
2021/05/18 12:53:29;;;;;;;0.00;0.00;;;17.90;92.00;;;;;;4951804;28;20385;-88
2021/05/18 12:55:57;;;;;;;0.93;0.30;;;17.50;94.50;;;;;;4955705;28;20031;-89
2021/05/18 12:58:31;;;;;;;0.73;0.20;;;17.30;94.80;;;;;;4953483;28;20038;-89
2021/05/18 13:01:18;;;;;;;0.88;0.20;;;16.90;95.80;;;;;;4954241;29;20501;-89
2021/05/18 13:03:44;;;;;;;0.82;0.20;;;16.70;96.90;;;;;;4952664;29;20027;-89
2021/05/18 13:06:11;;;;;;;1.23;0.20;;;16.40;97.60;;;;;;4953215;28;20027;-88
2021/05/18 13:08:38;;;;;;;1.63;0.10;;;16.70;99.00;;;;;;4948540;29;20665;-88
2021/05/18 13:13:35;;;;;;;1.88;0.28;;;15.90;99.90;;;;;;4947357;29;20575;-88
2021/05/18 13:16:24;;;;;;;0.75;0.10;;;15.40;99.90;;;;;;4960424;28;20062;-88
2021/05/18 13:19:06;;;;;;;1.98;0.28;;;14.90;99.90;;;;;;4941267;29;20079;-87
2021/05/18 13:21:43;;;;;;;1.27;0.20;;;14.60;99.90;;;;;;4941328;28;20023;-87
2021/05/18 13:24:25;;;;;;;2.40;0.20;;;14.50;99.90;;;;;;4940914;28;20379;-87
2021/05/18 13:26:51;;;;;;;0.70;0.30;;;14.30;99.90;;;;;;4946971;28;20028;-88
2021/05/18 13:29:19;;;;;;;2.45;0.10;;;14.30;99.90;;;;;;4940375;28;20540;-88
2021/05/18 13:31:55;;;;;;;3.58;0.45;;;14.40;99.90;;;;;;4944676;28;20027;-89
2021/05/18 13:34:21;;;;;;;0.98;0.25;;;14.70;99.90;;;;;;4952603;28;20062;-88
2021/05/18 13:36:48;;;;;;;1.42;0.20;;;15.30;99.90;;;;;;4951053;28;20034;-88
2021/05/18 13:39:16;;;;;;;1.25;0.10;;;15.40;99.90;;;;;;4950227;29;20547;-88
2021/05/18 13:41:43;;;;;;;1.08;0.10;;;15.90;99.90;;;;;;4952177;28;20527;-88
2021/05/18 13:44:10;;;;;;;0.85;0.10;;;16.60;99.90;;;;;;4951481;29;20501;-87
2021/05/18 13:46:36;;;;;;;1.65;0.30;;;17.00;96.00;;;;;;4951748;28;20038;-87
2021/05/18 13:49:02;;;;;;;0.45;0.10;;;17.30;97.20;;;;;;4953489;28;20015;-88
2021/05/18 13:51:29;;;;;;;0.88;0.15;;;17.50;97.30;;;;;;4953780;29;20031;-87
2021/05/18 13:53:55;;;;;;;2.22;0.30;;;17.30;99.90;;;;;;4953415;28;20027;-88
2021/05/18 13:56:23;;;;;;;1.17;0.10;;;17.40;99.90;;;;;;4954914;28;20034;-88
2021/05/18 13:58:49;;;;;;;1.67;0.28;;;17.10;99.00;;;;;;4951647;29;20050;-87
2021/05/18 14:01:16;;;;;;;1.92;0.10;;;16.90;99.40;;;;;;4954732;28;20035;-87
2021/05/18 14:03:41;;;;;;;1.20;0.10;;;16.70;99.90;;;;;;4952632;29;20544;-87
2021/05/18 14:06:10;;;;;;;1.75;0.30;;;16.60;99.90;;;;;;4953442;29;20031;-87
2021/05/18 14:08:36;;;;;;;1.85;0.20;;;16.30;99.90;;;;;;4950165;29;20367;-87
2021/05/18 14:11:11;;;;;;;1.95;0.30;;;15.90;99.90;;;;;;4953875;28;20023;-87
2021/05/18 14:13:40;;;;;;;0.85;0.10;;;15.60;99.90;;;;;;4953121;29;20043;-88
2021/05/18 14:16:07;;;;;;;0.32;0.10;;;15.20;99.90;;;;;;4951364;28;20047;-88
2021/05/18 14:18:33;;;;;;;0.52;0.13;;;14.90;99.90;;;;;;4953028;28;20461;-87
2021/05/18 14:21:03;;;;;;;0.05;0.00;;;15.00;99.90;;;;;;4953029;29;20031;-87
2021/05/18 14:26:12;;;;;;;;;;;15.30;99.90;;;;;;4953115;28;20027;-88
2021/05/18 14:28:39;;;;;;;2.75;0.20;;;15.60;99.90;;;;;;4953473;28;20380;-88
2021/05/18 14:31:11;;;;;;;1.42;0.30;;;16.30;99.90;;;;;;4953154;29;20027;-87
2021/05/18 14:33:38;;;;;;;1.00;0.10;;;16.60;98.60;;;;;;4952044;29;20394;-89
2021/05/18 14:36:08;;;;;;;1.17;0.10;;;16.60;96.60;;;;;;4954272;29;20141;-89
2021/05/18 14:38:34;;;;;;;0.35;0.10;;;16.40;97.10;;;;;;4948760;28;20066;-89
2021/05/18 14:56:54;;;;;;;1.02;0.10;;;16.20;94.80;;;;;;4953490;28;20134;-89
2021/05/18 14:59:20;;;;;;;0.52;0.10;;;15.70;96.60;;;;;;4950746;29;20035;-90
2021/05/18 15:01:46;;;;;;;0.70;0.10;;;15.40;95.20;;;;;;4952434;28;20042;-89
2021/05/18 15:04:20;;;;;;;1.50;0.03;;;15.10;97.60;;;;;;4956677;28;20477;-88
2021/05/18 15:06:59;;;;;;;0.45;0.00;;;15.00;97.50;;;;;;4955005;28;20038;-89
2021/05/18 15:12:51;;;;;;;0.57;0.10;;;15.00;99.70;;;;;;4955333;29;20042;-88
2021/05/18 15:15:17;;;;;;;1.52;0.10;;;15.00;99.90;;;;;;4953858;29;20019;-90
2021/05/18 15:17:45;;;;;;;0.25;0.10;;;15.20;99.60;;;;;;4938243;29;20553;-90
2021/05/18 15:20:12;;;;;;;1.25;0.10;;;15.10;99.60;;;;;;4954006;29;20548;-89
2021/05/18 15:22:40;;;;;;;0.47;0.10;;;15.00;99.60;;;;;;4955698;28;20090;-89
2021/05/18 15:25:10;;;;;;;0.20;0.10;;;15.10;97.60;;;;;;4954682;29;20034;-89
2021/05/18 15:27:47;;;;;;;0.30;0.10;;;15.30;98.80;;;;;;4954585;28;20024;-90
2021/05/18 15:30:13;;;;;;;0.30;0.05;;;15.90;96.60;;;;;;4954784;29;20023;-89
2021/05/18 15:32:53;;;;;;;0.40;0.10;;;16.60;94.60;;;;;;4953781;29;20412;-92
2021/05/18 15:35:19;;;;;;;2.35;0.20;;;17.50;93.30;;;;;;4954161;29;20118;-90
2021/05/18 15:37:45;;;;;;;1.13;0.25;;;17.70;90.20;;;;;;4952177;28;20123;-90
2021/05/18 15:40:13;;;;;;;1.05;0.20;;;17.40;90.60;;;;;;4955233;28;20059;-89
2021/05/18 15:42:40;;;;;;;0.63;0.20;;;17.10;90.60;;;;;;4954930;28;20034;-90
2021/05/18 15:45:08;;;;;;;0.75;0.15;;;17.00;91.10;;;;;;4948342;29;20027;-90
2021/05/18 15:47:35;;;;;;;0.57;0.10;;;17.20;91.90;;;;;;4946428;28;20027;-90
2021/05/18 15:50:03;;;;;;;1.02;0.10;;;17.10;91.90;;;;;;4951593;28;20031;-90
2021/05/18 15:52:30;;;;;;;0.55;0.10;;;16.80;90.80;;;;;;4954412;28;20060;-90
2021/05/18 15:54:56;;;;;;;0.88;0.10;;;17.00;92.30;;;;;;4954613;29;20038;-90
2021/05/18 15:57:22;;;;;;;0.40;0.10;;;17.10;92.80;;;;;;4952863;28;20079;-90
2021/05/18 15:59:50;;;;;;;1.52;0.25;;;17.00;91.80;;;;;;4953969;29;20043;-89
2021/05/18 16:02:16;;;;;;;0.73;0.20;;;16.90;91.70;;;;;;4953366;29;20035;-90
2021/05/18 16:04:43;;;;;;;1.38;0.20;;;16.60;93.30;;;;;;4952845;29;20090;-90
2021/05/18 16:07:12;;;;;;;0.80;0.10;;;16.10;93.70;;;;;;4951677;28;20082;-89
2021/05/18 16:09:38;;;;;;;0.70;0.10;;;15.80;94.50;;;;;;4953790;29;20126;-89
2021/05/18 16:12:07;;;;;;;2.13;0.10;;;15.70;94.70;;;;;;4952385;29;20066;-89
2021/05/18 16:14:37;;;;;;;0.88;0.10;;;15.40;94.90;;;;;;4952931;29;20133;-89
2021/05/18 16:17:03;;;;;;;0.52;0.10;;;15.10;95.40;;;;;;4953623;28;20384;-89
2021/05/18 16:19:35;;;;;;;1.77;0.20;;;15.00;96.70;;;;;;5102546;27;20373;-89
2021/05/18 16:22:03;;;;;;;1.85;0.20;;;14.80;97.50;;;;;;5124934;28;20029;-89
2021/05/18 16:24:32;;;;;;;0.38;0.10;;;14.70;98.10;;;;;;5093212;28;20119;-88
2021/05/18 16:27:00;;;;;;;0.47;0.10;;;14.50;97.00;;;;;;5106326;28;20062;-88
2021/05/18 16:29:30;;;;;;;0.38;0.13;;;14.40;97.20;;;;;;5114464;28;20031;-91
2021/05/18 16:31:59;;;;;;;0.20;0.10;;;14.20;95.20;;;;;;5115541;28;20024;-88
2021/05/18 16:34:27;;;;;;;0.20;0.00;;;13.70;96.80;;;;;;5111193;28;20477;-89
2021/05/18 16:36:54;;;;;;;1.13;0.10;;;13.40;99.10;;;;;;5110353;28;20030;-88
2021/05/18 16:39:23;;;;;;;1.25;0.20;;;13.10;99.90;;;;;;5109720;28;20024;-89
2021/05/18 16:41:52;;;;;;;1.27;0.20;;;13.00;99.90;;;;;;5109050;28;20109;-89
2021/05/18 16:44:18;;;;;;;0.30;0.10;;;13.00;99.90;;;;;;5110654;28;20024;-90
2021/05/18 16:46:52;;;;;;;1.13;0.10;;;12.90;99.90;;;;;;5108814;28;20020;-89
2021/05/18 16:49:18;;;;;;;1.38;0.20;;;12.90;99.90;;;;;;5108756;28;20039;-90
2021/05/18 16:51:47;;;;;;;3.65;0.30;;;13.00;99.90;;;;;;5108669;28;20055;-89
2021/05/18 16:54:13;;;;;;;0.45;0.10;;;13.00;99.90;;;;;;5092301;28;20039;-89
2021/05/18 16:56:41;;;;;;;0.57;0.05;;;13.00;99.90;;;;;;5087905;28;20028;-89
2021/05/18 16:59:08;;;;;;;1.27;0.15;;;13.20;99.90;;;;;;5087065;28;20074;-89
2021/05/18 17:01:35;;;;;;;1.02;0.20;;;13.20;99.90;;;;;;5101093;28;20780;-90
2021/05/18 17:04:03;;;;;;;1.30;0.30;;;13.10;99.90;;;;;;5107765;28;20019;-89
2021/05/18 17:06:29;;;;;;;0.63;0.10;;;13.20;99.90;;;;;;5108202;28;20024;-89
2021/05/18 17:08:57;;;;;;;0.68;0.10;;;13.20;99.90;;;;;;5107944;28;20400;-88
2021/05/18 17:11:23;;;;;;;1.75;0.20;;;13.20;99.90;;;;;;5109137;28;20057;-89
2021/05/18 17:13:49;;;;;;;0.82;0.20;;;13.20;99.90;;;;;;5096790;28;20024;-89
2021/05/18 17:16:17;;;;;;;1.35;0.22;;;13.30;99.90;;;;;;5097588;28;20028;-89
2021/05/18 17:18:42;;;;;;;0.47;0.20;;;13.40;99.90;;;;;;5097444;28;20020;-89
2021/05/18 17:21:08;;;;;;;1.75;0.50;;;13.40;99.90;;;;;;5085611;28;20108;-90
2021/05/18 17:23:34;;;;;;;0.57;0.20;;;13.40;99.90;;;;;;5087061;28;20016;-90
2021/05/18 17:26:00;;;;;;;1.55;0.20;;;13.30;99.90;;;;;;5084775;28;20377;-89
2021/05/18 17:28:25;;;;;;;1.40;0.38;;;13.30;99.90;;;;;;5079299;28;20480;-89
2021/05/18 17:30:52;;;;;;;0.60;0.10;;;13.10;99.90;;;;;;5065681;28;20107;-88
2021/05/18 17:33:18;;;;;;;0.08;0.00;;;12.90;99.90;;;;;;5079934;28;20050;-89
2021/05/18 17:35:44;;;;;;;0.43;0.00;;;12.50;99.90;;;;;;5068079;28;20056;-89
2021/05/18 17:38:10;;;;;;;1.27;0.10;;;12.40;99.90;;;;;;5063808;28;20150;-89
2021/05/18 17:40:38;;;;;;;0.60;0.10;;;11.80;99.90;;;;;;5058484;28;20063;-89
2021/05/18 17:43:05;;;;;;;0.08;0.08;;;11.70;99.90;;;;;;5077189;28;20024;-89
2021/05/18 17:45:31;;;;;;;0.43;0.10;;;11.50;99.90;;;;;;5079677;28;20083;-89
2021/05/18 17:47:57;;;;;;;0.88;0.10;;;11.50;99.90;;;;;;5063247;28;20486;-88
2021/05/18 17:50:23;;;;;;;0.93;0.00;;;11.30;99.90;;;;;;5069191;28;20086;-88
2021/05/18 17:52:48;;;;;;;0.20;0.00;;;11.20;99.90;;;;;;5068124;28;20028;-88
2021/05/18 17:55:17;;;;;;;0.20;0.10;;;11.30;99.90;;;;;;5084992;28;20024;-89
2021/05/18 17:57:43;;;;;;;0.55;0.20;;;11.20;99.90;;;;;;5074380;28;20024;-86
2021/05/18 18:00:10;;;;;;;0.88;0.20;;;11.10;99.90;;;;;;5074112;28;20053;-89
2021/05/18 18:02:37;;;;;;;1.25;0.15;;;11.10;99.90;;;;;;5058845;28;20028;-89
2021/05/18 18:05:04;;;;;;;0.15;0.10;;;11.00;99.90;;;;;;5081224;28;20013;-89
2021/05/18 18:07:30;;;;;;;0.25;0.10;;;10.90;99.90;;;;;;5080736;28;20028;-88
2021/05/18 18:10:00;;;;;;;1.65;0.10;;;10.90;99.90;;;;;;5074086;28;20134;-88
2021/05/18 18:12:26;;;;;;;0.55;0.20;;;10.80;99.90;;;;;;5081886;28;20027;-87
2021/05/18 18:14:52;;;;;;;0.30;0.10;;;10.70;99.90;;;;;;5077366;28;20510;-87